sensor_id;sensor_type;location;lat;lon;timestamp;pressure;altitude;pressure_sealevel;temperature
11849;BMP180;5983;49.966;8.052;2023-11-19T00:01:01;100275.00;;;8.60
11849;BMP180;5983;49.966;8.052;2023-11-19T00:03:31;100282.00;;;8.70
11849;BMP180;5983;49.966;8.052;2023-11-19T00:05:58;100291.00;;;8.70
11849;BMP180;5983;49.966;8.052;2023-11-19T00:08:26;100295.00;;;8.70
11849;BMP180;5983;49.966;8.052;2023-11-19T00:10:52;100296.00;;;8.70
11849;BMP180;5983;49.966;8.052;2023-11-19T00:13:19;100315.00;;;8.70
11849;BMP180;5983;49.966;8.052;2023-11-19T00:15:46;100313.00;;;8.70
11849;BMP180;5983;49.966;8.052;2023-11-19T00:18:13;100303.00;;;8.70
11849;BMP180;5983;49.966;8.052;2023-11-19T00:20:39;100288.00;;;8.80
11849;BMP180;5983;49.966;8.052;2023-11-19T00:23:07;100291.00;;;8.80
11849;BMP180;5983;49.966;8.052;2023-11-19T00:25:35;100290.00;;;8.80
11849;BMP180;5983;49.966;8.052;2023-11-19T00:28:01;100299.00;;;8.80
11849;BMP180;5983;49.966;8.052;2023-11-19T00:30:28;100298.00;;;8.80
11849;BMP180;5983;49.966;8.052;2023-11-19T00:32:56;100290.00;;;8.80
11849;BMP180;5983;49.966;8.052;2023-11-19T00:35:23;100267.00;;;8.90
11849;BMP180;5983;49.966;8.052;2023-11-19T00:37:50;100269.00;;;8.90
11849;BMP180;5983;49.966;8.052;2023-11-19T00:40:19;100264.00;;;8.90
11849;BMP180;5983;49.966;8.052;2023-11-19T00:42:49;100274.00;;;8.90
11849;BMP180;5983;49.966;8.052;2023-11-19T00:45:16;100254.00;;;8.90
11849;BMP180;5983;49.966;8.052;2023-11-19T00:47:43;100258.00;;;8.90
11849;BMP180;5983;49.966;8.052;2023-11-19T00:50:10;100268.00;;;8.90
11849;BMP180;5983;49.966;8.052;2023-11-19T00:52:38;100220.00;;;8.90
11849;BMP180;5983;49.966;8.052;2023-11-19T00:55:06;100242.00;;;9.00
11849;BMP180;5983;49.966;8.052;2023-11-19T00:57:33;100247.00;;;9.00
11849;BMP180;5983;49.966;8.052;2023-11-19T01:00:02;100245.00;;;9.00
11849;BMP180;5983;49.966;8.052;2023-11-19T01:02:34;100238.00;;;9.10
11849;BMP180;5983;49.966;8.052;2023-11-19T01:05:01;100223.00;;;9.10
11849;BMP180;5983;49.966;8.052;2023-11-19T01:07:28;100230.00;;;9.10
11849;BMP180;5983;49.966;8.052;2023-11-19T01:09:54;100225.00;;;9.10
11849;BMP180;5983;49.966;8.052;2023-11-19T01:12:21;100217.00;;;9.10
11849;BMP180;5983;49.966;8.052;2023-11-19T01:14:48;100221.00;;;9.10
11849;BMP180;5983;49.966;8.052;2023-11-19T01:17:16;100228.00;;;9.10
11849;BMP180;5983;49.966;8.052;2023-11-19T01:19:43;100224.00;;;9.10
11849;BMP180;5983;49.966;8.052;2023-11-19T01:22:09;100229.00;;;9.10
11849;BMP180;5983;49.966;8.052;2023-11-19T01:24:36;100222.00;;;9.10
11849;BMP180;5983;49.966;8.052;2023-11-19T01:27:03;100234.00;;;9.20
11849;BMP180;5983;49.966;8.052;2023-11-19T01:29:30;100234.00;;;9.20
11849;BMP180;5983;49.966;8.052;2023-11-19T01:31:56;100233.00;;;9.20
11849;BMP180;5983;49.966;8.052;2023-11-19T01:34:24;100264.00;;;9.30
11849;BMP180;5983;49.966;8.052;2023-11-19T01:36:51;100250.00;;;9.30
11849;BMP180;5983;49.966;8.052;2023-11-19T01:39:18;100240.00;;;9.40
11849;BMP180;5983;49.966;8.052;2023-11-19T01:41:45;100245.00;;;9.40
11849;BMP180;5983;49.966;8.052;2023-11-19T01:44:12;100225.00;;;9.40
11849;BMP180;5983;49.966;8.052;2023-11-19T01:46:40;100202.00;;;9.40
11849;BMP180;5983;49.966;8.052;2023-11-19T01:49:08;100195.00;;;9.50
11849;BMP180;5983;49.966;8.052;2023-11-19T01:51:39;100206.00;;;9.50
11849;BMP180;5983;49.966;8.052;2023-11-19T01:54:06;100186.00;;;9.50
11849;BMP180;5983;49.966;8.052;2023-11-19T01:56:34;100189.00;;;9.50
11849;BMP180;5983;49.966;8.052;2023-11-19T01:59:02;100174.00;;;9.50
11849;BMP180;5983;49.966;8.052;2023-11-19T02:01:29;100173.00;;;9.50
11849;BMP180;5983;49.966;8.052;2023-11-19T02:03:58;100174.00;;;9.60
11849;BMP180;5983;49.966;8.052;2023-11-19T02:06:25;100172.00;;;9.60
11849;BMP180;5983;49.966;8.052;2023-11-19T02:08:54;100176.00;;;9.60
11849;BMP180;5983;49.966;8.052;2023-11-19T02:11:20;100178.00;;;9.60
11849;BMP180;5983;49.966;8.052;2023-11-19T02:13:47;100184.00;;;9.60
11849;BMP180;5983;49.966;8.052;2023-11-19T02:16:14;100188.00;;;9.60
11849;BMP180;5983;49.966;8.052;2023-11-19T02:18:40;100172.00;;;9.60
11849;BMP180;5983;49.966;8.052;2023-11-19T02:21:08;100177.00;;;9.60
11849;BMP180;5983;49.966;8.052;2023-11-19T02:23:36;100179.00;;;9.60
11849;BMP180;5983;49.966;8.052;2023-11-19T02:26:12;100170.00;;;9.60
11849;BMP180;5983;49.966;8.052;2023-11-19T02:28:42;100157.00;;;9.60
11849;BMP180;5983;49.966;8.052;2023-11-19T02:31:09;100166.00;;;9.70
11849;BMP180;5983;49.966;8.052;2023-11-19T02:36:58;100165.00;;;9.70
11849;BMP180;5983;49.966;8.052;2023-11-19T02:39:25;100158.00;;;9.70
11849;BMP180;5983;49.966;8.052;2023-11-19T02:41:52;100152.00;;;9.70
11849;BMP180;5983;49.966;8.052;2023-11-19T02:44:20;100145.00;;;9.70
11849;BMP180;5983;49.966;8.052;2023-11-19T02:46:47;100140.00;;;9.70
11849;BMP180;5983;49.966;8.052;2023-11-19T02:49:14;100143.00;;;9.70
11849;BMP180;5983;49.966;8.052;2023-11-19T02:51:40;100147.00;;;9.70
11849;BMP180;5983;49.966;8.052;2023-11-19T02:54:07;100155.00;;;9.70
11849;BMP180;5983;49.966;8.052;2023-11-19T02:56:35;100155.00;;;9.70
11849;BMP180;5983;49.966;8.052;2023-11-19T02:59:04;100143.00;;;9.80
11849;BMP180;5983;49.966;8.052;2023-11-19T03:01:41;100147.00;;;9.80
11849;BMP180;5983;49.966;8.052;2023-11-19T03:04:09;100133.00;;;9.80
11849;BMP180;5983;49.966;8.052;2023-11-19T03:06:37;100140.00;;;9.80
11849;BMP180;5983;49.966;8.052;2023-11-19T03:09:04;100140.00;;;9.80
11849;BMP180;5983;49.966;8.052;2023-11-19T03:11:35;100136.00;;;9.80
11849;BMP180;5983;49.966;8.052;2023-11-19T03:14:02;100140.00;;;9.80
11849;BMP180;5983;49.966;8.052;2023-11-19T03:16:29;100134.00;;;9.90
11849;BMP180;5983;49.966;8.052;2023-11-19T03:18:57;100122.00;;;9.90
11849;BMP180;5983;49.966;8.052;2023-11-19T03:21:27;100124.00;;;9.90
11849;BMP180;5983;49.966;8.052;2023-11-19T03:23:54;100137.00;;;9.90
11849;BMP180;5983;49.966;8.052;2023-11-19T03:26:21;100126.00;;;9.80
11849;BMP180;5983;49.966;8.052;2023-11-19T03:28:48;100123.00;;;9.80
11849;BMP180;5983;49.966;8.052;2023-11-19T03:31:15;100119.00;;;9.90
11849;BMP180;5983;49.966;8.052;2023-11-19T03:33:42;100123.00;;;9.80
11849;BMP180;5983;49.966;8.052;2023-11-19T03:36:10;100123.00;;;9.90
11849;BMP180;5983;49.966;8.052;2023-11-19T03:38:38;100114.00;;;9.90
11849;BMP180;5983;49.966;8.052;2023-11-19T03:41:14;100120.00;;;9.90
11849;BMP180;5983;49.966;8.052;2023-11-19T03:43:41;100117.00;;;9.90
11849;BMP180;5983;49.966;8.052;2023-11-19T03:46:16;100109.00;;;9.90
11849;BMP180;5983;49.966;8.052;2023-11-19T03:48:43;100117.00;;;9.90
11849;BMP180;5983;49.966;8.052;2023-11-19T03:51:13;100122.00;;;9.90
11849;BMP180;5983;49.966;8.052;2023-11-19T03:53:41;100134.00;;;9.90
11849;BMP180;5983;49.966;8.052;2023-11-19T03:56:08;100126.00;;;9.90
11849;BMP180;5983;49.966;8.052;2023-11-19T03:58:36;100132.00;;;9.90
11849;BMP180;5983;49.966;8.052;2023-11-19T04:01:04;100126.00;;;9.90
11849;BMP180;5983;49.966;8.052;2023-11-19T04:03:30;100118.00;;;9.90
11849;BMP180;5983;49.966;8.052;2023-11-19T04:05:57;100118.00;;;9.90
11849;BMP180;5983;49.966;8.052;2023-11-19T04:08:26;100116.00;;;9.90
11849;BMP180;5983;49.966;8.052;2023-11-19T04:10:52;100107.00;;;9.90
11849;BMP180;5983;49.966;8.052;2023-11-19T04:13:19;100112.00;;;9.90
11849;BMP180;5983;49.966;8.052;2023-11-19T04:15:46;100115.00;;;10.00
11849;BMP180;5983;49.966;8.052;2023-11-19T04:18:13;100116.00;;;10.00
11849;BMP180;5983;49.966;8.052;2023-11-19T04:20:40;100113.00;;;10.00
11849;BMP180;5983;49.966;8.052;2023-11-19T04:23:07;100121.00;;;10.00
11849;BMP180;5983;49.966;8.052;2023-11-19T04:25:36;100113.00;;;10.00
11849;BMP180;5983;49.966;8.052;2023-11-19T04:28:03;100121.00;;;10.00
11849;BMP180;5983;49.966;8.052;2023-11-19T04:30:30;100111.00;;;10.10
11849;BMP180;5983;49.966;8.052;2023-11-19T04:32:58;100107.00;;;10.10
11849;BMP180;5983;49.966;8.052;2023-11-19T04:35:25;100105.00;;;10.10
11849;BMP180;5983;49.966;8.052;2023-11-19T04:37:52;100105.00;;;10.10
11849;BMP180;5983;49.966;8.052;2023-11-19T04:40:19;100102.00;;;10.10
11849;BMP180;5983;49.966;8.052;2023-11-19T04:42:49;100103.00;;;10.10
11849;BMP180;5983;49.966;8.052;2023-11-19T04:45:16;100109.00;;;10.10
11849;BMP180;5983;49.966;8.052;2023-11-19T04:47:43;100107.00;;;10.10
11849;BMP180;5983;49.966;8.052;2023-11-19T04:50:10;100103.00;;;10.10
11849;BMP180;5983;49.966;8.052;2023-11-19T04:52:37;100100.00;;;10.10
11849;BMP180;5983;49.966;8.052;2023-11-19T04:55:06;100084.00;;;10.10
11849;BMP180;5983;49.966;8.052;2023-11-19T04:57:33;100086.00;;;10.10
11849;BMP180;5983;49.966;8.052;2023-11-19T05:00:01;100092.00;;;10.10
11849;BMP180;5983;49.966;8.052;2023-11-19T05:02:30;100098.00;;;10.20
11849;BMP180;5983;49.966;8.052;2023-11-19T05:04:57;100095.00;;;10.10
11849;BMP180;5983;49.966;8.052;2023-11-19T05:07:23;100092.00;;;10.20
11849;BMP180;5983;49.966;8.052;2023-11-19T05:09:50;100094.00;;;10.20
11849;BMP180;5983;49.966;8.052;2023-11-19T05:12:17;100101.00;;;10.10
11849;BMP180;5983;49.966;8.052;2023-11-19T05:14:44;100111.00;;;10.10
11849;BMP180;5983;49.966;8.052;2023-11-19T05:17:16;100111.00;;;10.10
11849;BMP180;5983;49.966;8.052;2023-11-19T05:19:44;100108.00;;;10.10
11849;BMP180;5983;49.966;8.052;2023-11-19T05:22:11;100103.00;;;10.20
11849;BMP180;5983;49.966;8.052;2023-11-19T05:24:38;100110.00;;;10.20
11849;BMP180;5983;49.966;8.052;2023-11-19T05:27:06;100098.00;;;10.20
11849;BMP180;5983;49.966;8.052;2023-11-19T05:29:33;100094.00;;;10.20
11849;BMP180;5983;49.966;8.052;2023-11-19T05:32:00;100095.00;;;10.30
11849;BMP180;5983;49.966;8.052;2023-11-19T05:34:28;100078.00;;;10.30
11849;BMP180;5983;49.966;8.052;2023-11-19T05:36:55;100078.00;;;10.30
11849;BMP180;5983;49.966;8.052;2023-11-19T05:39:22;100076.00;;;10.40
11849;BMP180;5983;49.966;8.052;2023-11-19T05:41:49;100080.00;;;10.30
11849;BMP180;5983;49.966;8.052;2023-11-19T05:44:17;100078.00;;;10.30
11849;BMP180;5983;49.966;8.052;2023-11-19T05:46:44;100092.00;;;10.30
11849;BMP180;5983;49.966;8.052;2023-11-19T05:49:11;100098.00;;;10.30
11849;BMP180;5983;49.966;8.052;2023-11-19T05:51:40;100098.00;;;10.30
11849;BMP180;5983;49.966;8.052;2023-11-19T05:54:08;100098.00;;;10.30
11849;BMP180;5983;49.966;8.052;2023-11-19T05:56:35;100098.00;;;10.40
11849;BMP180;5983;49.966;8.052;2023-11-19T05:59:02;100105.00;;;10.40
11849;BMP180;5983;49.966;8.052;2023-11-19T06:01:34;100109.00;;;10.40
11849;BMP180;5983;49.966;8.052;2023-11-19T06:04:01;100104.00;;;10.40
11849;BMP180;5983;49.966;8.052;2023-11-19T06:06:28;100103.00;;;10.40
11849;BMP180;5983;49.966;8.052;2023-11-19T06:08:56;100105.00;;;10.40
11849;BMP180;5983;49.966;8.052;2023-11-19T06:11:23;100106.00;;;10.40
11849;BMP180;5983;49.966;8.052;2023-11-19T06:13:52;100121.00;;;10.40
11849;BMP180;5983;49.966;8.052;2023-11-19T06:16:19;100134.00;;;10.40
11849;BMP180;5983;49.966;8.052;2023-11-19T06:18:46;100122.00;;;10.30
11849;BMP180;5983;49.966;8.052;2023-11-19T06:21:13;100128.00;;;10.40
11849;BMP180;5983;49.966;8.052;2023-11-19T06:23:39;100125.00;;;10.40
11849;BMP180;5983;49.966;8.052;2023-11-19T06:26:08;100120.00;;;10.40
11849;BMP180;5983;49.966;8.052;2023-11-19T06:31:10;100125.00;;;10.50
11849;BMP180;5983;49.966;8.052;2023-11-19T06:33:37;100114.00;;;10.50
11849;BMP180;5983;49.966;8.052;2023-11-19T06:36:04;100112.00;;;10.50
11849;BMP180;5983;49.966;8.052;2023-11-19T06:38:30;100113.00;;;10.50
11849;BMP180;5983;49.966;8.052;2023-11-19T06:40:57;100123.00;;;10.50
11849;BMP180;5983;49.966;8.052;2023-11-19T06:43:25;100117.00;;;10.50
11849;BMP180;5983;49.966;8.052;2023-11-19T06:45:53;100112.00;;;10.50
11849;BMP180;5983;49.966;8.052;2023-11-19T06:48:22;100109.00;;;10.40
11849;BMP180;5983;49.966;8.052;2023-11-19T06:50:49;100099.00;;;10.50
11849;BMP180;5983;49.966;8.052;2023-11-19T06:53:16;100103.00;;;10.50
11849;BMP180;5983;49.966;8.052;2023-11-19T06:55:43;100107.00;;;10.50
11849;BMP180;5983;49.966;8.052;2023-11-19T06:58:09;100117.00;;;10.50
11849;BMP180;5983;49.966;8.052;2023-11-19T07:00:39;100114.00;;;10.40
11849;BMP180;5983;49.966;8.052;2023-11-19T07:03:06;100115.00;;;10.40
11849;BMP180;5983;49.966;8.052;2023-11-19T07:05:35;100114.00;;;10.50
11849;BMP180;5983;49.966;8.052;2023-11-19T07:08:03;100121.00;;;10.60
11849;BMP180;5983;49.966;8.052;2023-11-19T07:10:30;100129.00;;;10.60
11849;BMP180;5983;49.966;8.052;2023-11-19T07:12:57;100127.00;;;10.70
11849;BMP180;5983;49.966;8.052;2023-11-19T07:15:24;100125.00;;;10.70
11849;BMP180;5983;49.966;8.052;2023-11-19T07:17:52;100132.00;;;10.80
11849;BMP180;5983;49.966;8.052;2023-11-19T07:20:19;100129.00;;;10.90
11849;BMP180;5983;49.966;8.052;2023-11-19T07:22:46;100130.00;;;10.90
11849;BMP180;5983;49.966;8.052;2023-11-19T07:25:14;100128.00;;;11.00
11849;BMP180;5983;49.966;8.052;2023-11-19T07:27:41;100129.00;;;11.10
11849;BMP180;5983;49.966;8.052;2023-11-19T07:30:08;100122.00;;;11.10
11849;BMP180;5983;49.966;8.052;2023-11-19T07:32:35;100116.00;;;11.20
11849;BMP180;5983;49.966;8.052;2023-11-19T07:35:06;100122.00;;;11.30
11849;BMP180;5983;49.966;8.052;2023-11-19T07:37:33;100138.00;;;11.50
11849;BMP180;5983;49.966;8.052;2023-11-19T07:40:00;100139.00;;;11.60
11849;BMP180;5983;49.966;8.052;2023-11-19T07:42:27;100150.00;;;11.90
11849;BMP180;5983;49.966;8.052;2023-11-19T07:44:54;100140.00;;;12.20
11849;BMP180;5983;49.966;8.052;2023-11-19T07:47:22;100149.00;;;12.40
11849;BMP180;5983;49.966;8.052;2023-11-19T07:49:50;100144.00;;;12.60
11849;BMP180;5983;49.966;8.052;2023-11-19T07:52:18;100146.00;;;13.10
11849;BMP180;5983;49.966;8.052;2023-11-19T07:54:45;100159.00;;;13.50
11849;BMP180;5983;49.966;8.052;2023-11-19T07:57:11;100154.00;;;13.90
11849;BMP180;5983;49.966;8.052;2023-11-19T07:59:38;100155.00;;;14.30
11849;BMP180;5983;49.966;8.052;2023-11-19T08:02:05;100144.00;;;14.70
11849;BMP180;5983;49.966;8.052;2023-11-19T08:04:32;100152.00;;;14.90
11849;BMP180;5983;49.966;8.052;2023-11-19T08:06:59;100152.00;;;15.10
11849;BMP180;5983;49.966;8.052;2023-11-19T08:09:27;100160.00;;;15.00
11849;BMP180;5983;49.966;8.052;2023-11-19T08:11:53;100152.00;;;15.10
11849;BMP180;5983;49.966;8.052;2023-11-19T08:14:21;100164.00;;;14.90
11849;BMP180;5983;49.966;8.052;2023-11-19T08:16:48;100164.00;;;14.90
11849;BMP180;5983;49.966;8.052;2023-11-19T08:19:15;100172.00;;;15.20
11849;BMP180;5983;49.966;8.052;2023-11-19T08:21:42;100170.00;;;15.30
11849;BMP180;5983;49.966;8.052;2023-11-19T08:24:09;100171.00;;;15.20
11849;BMP180;5983;49.966;8.052;2023-11-19T08:26:37;100172.00;;;14.90
11849;BMP180;5983;49.966;8.052;2023-11-19T08:29:05;100174.00;;;14.50
11849;BMP180;5983;49.966;8.052;2023-11-19T08:31:32;100182.00;;;14.10
11849;BMP180;5983;49.966;8.052;2023-11-19T08:33:58;100181.00;;;13.70
11849;BMP180;5983;49.966;8.052;2023-11-19T08:36:25;100170.00;;;13.50
11849;BMP180;5983;49.966;8.052;2023-11-19T08:38:53;100183.00;;;13.30
11849;BMP180;5983;49.966;8.052;2023-11-19T08:41:21;100190.00;;;13.10
11849;BMP180;5983;49.966;8.052;2023-11-19T08:43:49;100187.00;;;13.00
11849;BMP180;5983;49.966;8.052;2023-11-19T08:46:17;100191.00;;;12.90
11849;BMP180;5983;49.966;8.052;2023-11-19T08:48:44;100203.00;;;12.80
11849;BMP180;5983;49.966;8.052;2023-11-19T08:51:11;100191.00;;;12.70
11849;BMP180;5983;49.966;8.052;2023-11-19T08:53:38;100205.00;;;12.70
11849;BMP180;5983;49.966;8.052;2023-11-19T08:56:05;100207.00;;;13.00
11849;BMP180;5983;49.966;8.052;2023-11-19T08:58:32;100208.00;;;13.60
11849;BMP180;5983;49.966;8.052;2023-11-19T09:01:00;100184.00;;;13.90
11849;BMP180;5983;49.966;8.052;2023-11-19T09:03:27;100200.00;;;14.00
11849;BMP180;5983;49.966;8.052;2023-11-19T09:05:55;100206.00;;;13.90
11849;BMP180;5983;49.966;8.052;2023-11-19T09:08:22;100194.00;;;14.00
11849;BMP180;5983;49.966;8.052;2023-11-19T09:10:49;100185.00;;;15.40
11849;BMP180;5983;49.966;8.052;2023-11-19T09:13:16;100200.00;;;17.60
11849;BMP180;5983;49.966;8.052;2023-11-19T09:15:43;100196.00;;;19.10
11849;BMP180;5983;49.966;8.052;2023-11-19T09:18:11;100193.00;;;21.20
11849;BMP180;5983;49.966;8.052;2023-11-19T09:20:38;100204.00;;;22.90
11849;BMP180;5983;49.966;8.052;2023-11-19T09:23:06;100201.00;;;24.30
11849;BMP180;5983;49.966;8.052;2023-11-19T09:25:34;100209.00;;;24.70
11849;BMP180;5983;49.966;8.052;2023-11-19T09:28:01;100211.00;;;24.60
11849;BMP180;5983;49.966;8.052;2023-11-19T09:30:27;100232.00;;;23.70
11849;BMP180;5983;49.966;8.052;2023-11-19T09:32:54;100241.00;;;23.60
11849;BMP180;5983;49.966;8.052;2023-11-19T09:35:22;100244.00;;;23.70
11849;BMP180;5983;49.966;8.052;2023-11-19T09:37:49;100248.00;;;23.20
11849;BMP180;5983;49.966;8.052;2023-11-19T09:40:16;100252.00;;;23.00
11849;BMP180;5983;49.966;8.052;2023-11-19T09:42:44;100251.00;;;22.70
11849;BMP180;5983;49.966;8.052;2023-11-19T09:45:13;100257.00;;;23.40
11849;BMP180;5983;49.966;8.052;2023-11-19T09:47:42;100255.00;;;24.70
11849;BMP180;5983;49.966;8.052;2023-11-19T09:50:11;100258.00;;;26.10
11849;BMP180;5983;49.966;8.052;2023-11-19T09:52:42;100268.00;;;27.10
11849;BMP180;5983;49.966;8.052;2023-11-19T09:55:09;100276.00;;;27.40
11849;BMP180;5983;49.966;8.052;2023-11-19T09:57:38;100263.00;;;25.50
11849;BMP180;5983;49.966;8.052;2023-11-19T10:00:07;100258.00;;;23.30
11849;BMP180;5983;49.966;8.052;2023-11-19T10:02:36;100256.00;;;22.30
11849;BMP180;5983;49.966;8.052;2023-11-19T10:05:05;100250.00;;;22.40
11849;BMP180;5983;49.966;8.052;2023-11-19T10:07:33;100258.00;;;22.50
11849;BMP180;5983;49.966;8.052;2023-11-19T10:10:02;100248.00;;;21.70
11849;BMP180;5983;49.966;8.052;2023-11-19T10:12:29;100243.00;;;20.70
11849;BMP180;5983;49.966;8.052;2023-11-19T10:14:57;100236.00;;;19.70
11849;BMP180;5983;49.966;8.052;2023-11-19T10:17:27;100230.00;;;19.00
11849;BMP180;5983;49.966;8.052;2023-11-19T10:19:54;100227.00;;;18.40
11849;BMP180;5983;49.966;8.052;2023-11-19T10:22:22;100230.00;;;17.80
11849;BMP180;5983;49.966;8.052;2023-11-19T10:24:49;100235.00;;;17.30
11849;BMP180;5983;49.966;8.052;2023-11-19T10:27:18;100230.00;;;16.90
11849;BMP180;5983;49.966;8.052;2023-11-19T10:29:45;100219.00;;;16.60
11849;BMP180;5983;49.966;8.052;2023-11-19T10:32:13;100212.00;;;16.30
11849;BMP180;5983;49.966;8.052;2023-11-19T10:34:40;100204.00;;;15.90
11849;BMP180;5983;49.966;8.052;2023-11-19T10:37:08;100203.00;;;15.70
11849;BMP180;5983;49.966;8.052;2023-11-19T10:39:51;100205.00;;;15.50
11849;BMP180;5983;49.966;8.052;2023-11-19T10:42:21;100212.00;;;15.70
11849;BMP180;5983;49.966;8.052;2023-11-19T10:44:48;100211.00;;;16.30
11849;BMP180;5983;49.966;8.052;2023-11-19T10:47:18;100218.00;;;16.40
11849;BMP180;5983;49.966;8.052;2023-11-19T10:49:46;100218.00;;;16.50
11849;BMP180;5983;49.966;8.052;2023-11-19T10:52:17;100210.00;;;16.50
11849;BMP180;5983;49.966;8.052;2023-11-19T10:54:49;100216.00;;;16.40
11849;BMP180;5983;49.966;8.052;2023-11-19T10:57:21;100218.00;;;16.30
11849;BMP180;5983;49.966;8.052;2023-11-19T10:59:50;100222.00;;;16.10
11849;BMP180;5983;49.966;8.052;2023-11-19T11:02:21;100214.00;;;16.00
11849;BMP180;5983;49.966;8.052;2023-11-19T11:04:51;100203.00;;;16.10
11849;BMP180;5983;49.966;8.052;2023-11-19T11:07:21;100203.00;;;16.30
11849;BMP180;5983;49.966;8.052;2023-11-19T11:09:48;100198.00;;;16.80
11849;BMP180;5983;49.966;8.052;2023-11-19T11:12:16;100208.00;;;18.00
11849;BMP180;5983;49.966;8.052;2023-11-19T11:14:46;100211.00;;;18.80
11849;BMP180;5983;49.966;8.052;2023-11-19T11:17:17;100196.00;;;19.50
11849;BMP180;5983;49.966;8.052;2023-11-19T11:19:44;100196.00;;;19.40
11849;BMP180;5983;49.966;8.052;2023-11-19T11:22:12;100206.00;;;19.00
11849;BMP180;5983;49.966;8.052;2023-11-19T11:24:59;100195.00;;;18.30
11849;BMP180;5983;49.966;8.052;2023-11-19T11:27:42;100208.00;;;17.70
11849;BMP180;5983;49.966;8.052;2023-11-19T11:30:23;100213.00;;;17.60
11849;BMP180;5983;49.966;8.052;2023-11-19T11:33:01;100196.00;;;17.50
11849;BMP180;5983;49.966;8.052;2023-11-19T11:35:37;100201.00;;;17.60
11849;BMP180;5983;49.966;8.052;2023-11-19T11:38:08;100195.00;;;17.90
11849;BMP180;5983;49.966;8.052;2023-11-19T11:40:35;100211.00;;;17.60
11849;BMP180;5983;49.966;8.052;2023-11-19T11:43:02;100193.00;;;17.30
11849;BMP180;5983;49.966;8.052;2023-11-19T11:45:38;100204.00;;;17.50
11849;BMP180;5983;49.966;8.052;2023-11-19T11:48:12;100197.00;;;17.60
11849;BMP180;5983;49.966;8.052;2023-11-19T11:50:48;100199.00;;;19.00
11849;BMP180;5983;49.966;8.052;2023-11-19T11:53:16;100183.00;;;19.80
11849;BMP180;5983;49.966;8.052;2023-11-19T11:55:57;100188.00;;;20.30
11849;BMP180;5983;49.966;8.052;2023-11-19T11:58:32;100196.00;;;21.50
11849;BMP180;5983;49.966;8.052;2023-11-19T12:01:04;100196.00;;;21.00
11849;BMP180;5983;49.966;8.052;2023-11-19T12:03:35;100185.00;;;20.70
11849;BMP180;5983;49.966;8.052;2023-11-19T12:06:04;100194.00;;;21.40
11849;BMP180;5983;49.966;8.052;2023-11-19T12:08:34;100182.00;;;22.20
11849;BMP180;5983;49.966;8.052;2023-11-19T12:11:01;100181.00;;;24.00
11849;BMP180;5983;49.966;8.052;2023-11-19T12:13:44;100181.00;;;25.50
11849;BMP180;5983;49.966;8.052;2023-11-19T12:16:14;100179.00;;;25.70
11849;BMP180;5983;49.966;8.052;2023-11-19T12:18:41;100186.00;;;25.60
11849;BMP180;5983;49.966;8.052;2023-11-19T12:21:08;100179.00;;;24.40
11849;BMP180;5983;49.966;8.052;2023-11-19T12:23:47;100171.00;;;23.30
11849;BMP180;5983;49.966;8.052;2023-11-19T12:26:30;100168.00;;;23.40
11849;BMP180;5983;49.966;8.052;2023-11-19T12:28:58;100165.00;;;22.70
11849;BMP180;5983;49.966;8.052;2023-11-19T12:31:26;100171.00;;;22.40
11849;BMP180;5983;49.966;8.052;2023-11-19T12:33:53;100167.00;;;21.60
11849;BMP180;5983;49.966;8.052;2023-11-19T12:36:20;100166.00;;;20.50
11849;BMP180;5983;49.966;8.052;2023-11-19T12:38:47;100147.00;;;19.50
11849;BMP180;5983;49.966;8.052;2023-11-19T12:41:14;100144.00;;;18.80
11849;BMP180;5983;49.966;8.052;2023-11-19T12:43:45;100141.00;;;18.30
11849;BMP180;5983;49.966;8.052;2023-11-19T12:46:19;100148.00;;;20.00
11849;BMP180;5983;49.966;8.052;2023-11-19T12:48:47;100151.00;;;21.80
11849;BMP180;5983;49.966;8.052;2023-11-19T12:51:15;100150.00;;;23.00
11849;BMP180;5983;49.966;8.052;2023-11-19T12:53:48;100145.00;;;23.70
11849;BMP180;5983;49.966;8.052;2023-11-19T12:56:15;100137.00;;;23.90
11849;BMP180;5983;49.966;8.052;2023-11-19T12:58:42;100134.00;;;23.40
11849;BMP180;5983;49.966;8.052;2023-11-19T13:01:09;100136.00;;;22.70
11849;BMP180;5983;49.966;8.052;2023-11-19T13:03:37;100140.00;;;21.50
11849;BMP180;5983;49.966;8.052;2023-11-19T13:06:07;100141.00;;;21.90
11849;BMP180;5983;49.966;8.052;2023-11-19T13:08:39;100139.00;;;21.50
11849;BMP180;5983;49.966;8.052;2023-11-19T13:11:06;100144.00;;;22.10
11849;BMP180;5983;49.966;8.052;2023-11-19T13:13:55;100132.00;;;21.50
11849;BMP180;5983;49.966;8.052;2023-11-19T13:16:22;100132.00;;;20.40
11849;BMP180;5983;49.966;8.052;2023-11-19T13:18:49;100125.00;;;19.40
11849;BMP180;5983;49.966;8.052;2023-11-19T13:21:18;100141.00;;;18.70
11849;BMP180;5983;49.966;8.052;2023-11-19T13:23:45;100143.00;;;18.40
11849;BMP180;5983;49.966;8.052;2023-11-19T13:26:11;100138.00;;;18.20
11849;BMP180;5983;49.966;8.052;2023-11-19T13:28:38;100140.00;;;18.20
11849;BMP180;5983;49.966;8.052;2023-11-19T13:31:09;100136.00;;;17.90
11849;BMP180;5983;49.966;8.052;2023-11-19T13:33:39;100137.00;;;17.60
11849;BMP180;5983;49.966;8.052;2023-11-19T13:36:07;100140.00;;;17.40
11849;BMP180;5983;49.966;8.052;2023-11-19T13:38:36;100129.00;;;17.10
11849;BMP180;5983;49.966;8.052;2023-11-19T13:41:03;100132.00;;;16.90
11849;BMP180;5983;49.966;8.052;2023-11-19T13:43:31;100130.00;;;16.90
11849;BMP180;5983;49.966;8.052;2023-11-19T13:45:58;100131.00;;;16.80
11849;BMP180;5983;49.966;8.052;2023-11-19T13:48:25;100137.00;;;16.80
11849;BMP180;5983;49.966;8.052;2023-11-19T13:50:52;100121.00;;;16.70
11849;BMP180;5983;49.966;8.052;2023-11-19T13:53:18;100135.00;;;16.70
11849;BMP180;5983;49.966;8.052;2023-11-19T13:55:47;100136.00;;;16.70
11849;BMP180;5983;49.966;8.052;2023-11-19T13:58:14;100136.00;;;16.70
11849;BMP180;5983;49.966;8.052;2023-11-19T14:00:41;100140.00;;;16.60
11849;BMP180;5983;49.966;8.052;2023-11-19T14:03:09;100126.00;;;16.50
11849;BMP180;5983;49.966;8.052;2023-11-19T14:05:36;100124.00;;;16.40
11849;BMP180;5983;49.966;8.052;2023-11-19T14:08:03;100127.00;;;16.20
11849;BMP180;5983;49.966;8.052;2023-11-19T14:10:37;100118.00;;;15.90
11849;BMP180;5983;49.966;8.052;2023-11-19T14:13:07;100105.00;;;15.70
11849;BMP180;5983;49.966;8.052;2023-11-19T14:15:34;100117.00;;;15.60
11849;BMP180;5983;49.966;8.052;2023-11-19T14:18:01;100109.00;;;15.60
11849;BMP180;5983;49.966;8.052;2023-11-19T14:20:28;100122.00;;;15.60
11849;BMP180;5983;49.966;8.052;2023-11-19T14:22:55;100124.00;;;15.60